Aérodrome :
LOGIN :

S'inscrire | Disclaimer

   EN    FR    IT 

 










Légende :    VFR   VFR Marginal   IFR   IFR Intensif   IFR Très Intensif
Visi : 
Plafond : 
>= 8 km
>= 3000ft
5 à 8 km
1000 à 3000 ft
1500m à 5 km
500 à 1000 ft
800 à 1500m
200 à 500 ft
< 800m
< 200 ft
Symboles :   Orages  Brouillard  Fortes neiges  Fortes précipitations  Vent > 20 kt
SIGMETs :   Divers  Orages  Givrage  Turbulence  Onde Orograph.  Cendres Volcan.







- Altitude de l'aérodrome : 464 ft
- Code IATA : EVX
- Voir les cartes d'approche


LFOE - Evreux

DERNIER METAR :
  • 211530Z AUTO /////KT 9999 FEW035 BKN050 25/16 Q1019

METARs EXPIRÉS :
  • 211500Z AUTO 29004KT 220V360 9999 FEW028 OVC049 24/17 Q1020 NOSIG
  • 211430Z AUTO VRB03KT 9999 FEW025 OVC049 24/17 Q1020 NOSIG
  • 211400Z AUTO 30005KT 250V010 CAVOK 24/17 Q1020 NOSIG
  • 211330Z AUTO 31005KT 260V360 9999 FEW023 OVC046 23/18 Q1020 NOSIG
  • 211300Z AUTO 29005KT 260V340 9999 FEW023 OVC045 23/17 Q1021 NOSIG

TAF TAF LFOE
Valide du 21 à 03h jusqu'au 22 à 03h UTC


210200Z 2103/2203 34005KT 9999 BKN045
BECMG 2103/2104 BKN010
TEMPO 2104/2107 2000 DZ BR BKN005
BECMG 2108/2110 BKN020
Pas de NOTAMs connus pour ce terrain.



MET'MAP, la Météo Aéronautique d'un coup d'oeil ! - Copyright ORBIFLY Décembre 2007 - Disclaimer

ORBIFLY MET'MAP TEAM :

Programmation & Développement : Alexandra Zaïnal
Conception & Développement : Baudouin d'Aumeries
Co-Programmation & Développement : Marc-Olivier Méhu
Soutien technique & logistique : Manuel Goepfert

Contact : metmap@orbifly.com




SOURCES & CREDITS :

   NOAA